Time;durP1;ratioP1;P1;durP2;ratioP2;P2;SDS_P1;SDS_P2;PMS_P1;PMS_P2;Temp;Humidity;BMP_temperature;BMP_pressure;BME280_temperature;BME280_humidity;BME280_pressure;Samples;Min_cycle;Max_cycle;Signal;HPM_P1;HPM_P2
2022/05/17 00:02:05;;;;;;;19.95;7.13;;;16.60;99.90;;;;;;5094880;28;20517;-60
2022/05/17 00:04:32;;;;;;;17.17;7.07;;;16.50;99.90;;;;;;5094464;28;20043;-63
2022/05/17 00:06:58;;;;;;;16.90;7.85;;;16.50;99.90;;;;;;5112943;28;20069;-60
2022/05/17 00:09:24;;;;;;;14.15;7.43;;;16.50;99.90;;;;;;5094711;28;20126;-60
2022/05/17 00:11:50;;;;;;;18.13;7.20;;;16.50;99.90;;;;;;5094311;28;20127;-60
2022/05/17 00:14:16;;;;;;;19.20;6.93;;;16.40;99.90;;;;;;5078053;28;20051;-59
2022/05/17 00:16:43;;;;;;;20.58;7.93;;;16.40;99.90;;;;;;5112054;28;20484;-60
2022/05/17 00:19:10;;;;;;;22.75;8.32;;;16.40;99.90;;;;;;5094401;28;20051;-60
2022/05/17 00:21:37;;;;;;;16.02;6.65;;;16.40;99.90;;;;;;5112159;28;20493;-59
2022/05/17 00:24:04;;;;;;;18.63;7.32;;;16.30;99.90;;;;;;5112572;28;20551;-60
2022/05/17 00:26:30;;;;;;;19.45;7.10;;;16.30;99.90;;;;;;5112499;28;20501;-60
2022/05/17 00:28:55;;;;;;;19.13;7.43;;;16.20;99.90;;;;;;5093967;28;20127;-61
2022/05/17 00:31:21;;;;;;;20.73;6.82;;;16.20;99.90;;;;;;5112160;28;20079;-61
2022/05/17 00:33:47;;;;;;;16.92;6.47;;;16.20;99.90;;;;;;5111649;28;20104;-60
2022/05/17 00:36:13;;;;;;;21.55;7.45;;;16.10;99.90;;;;;;5112460;28;20082;-60
2022/05/17 00:38:38;;;;;;;26.45;7.57;;;16.10;99.90;;;;;;5111960;28;20400;-61
2022/05/17 00:41:04;;;;;;;19.02;7.25;;;16.10;99.90;;;;;;5112419;28;20126;-61
2022/05/17 00:46:26;;;;;;;19.27;7.43;;;16.00;99.90;;;;;;5094325;28;20060;-59
2022/05/17 00:48:53;;;;;;;19.63;6.75;;;16.00;99.90;;;;;;5111417;28;20039;-60
2022/05/17 00:51:23;;;;;;;18.27;7.05;;;16.00;99.90;;;;;;5111276;28;20050;-60
2022/05/17 00:53:50;;;;;;;17.35;6.22;;;15.90;99.90;;;;;;5076445;28;20051;-60
2022/05/17 00:56:21;;;;;;;16.83;6.30;;;15.90;99.90;;;;;;5093803;28;20083;-60
2022/05/17 00:58:52;;;;;;;20.15;6.45;;;15.90;99.90;;;;;;5111679;28;20039;-62
2022/05/17 01:01:21;;;;;;;13.73;6.28;;;15.90;99.90;;;;;;5094171;28;20132;-61
2022/05/17 01:04:16;;;;;;;17.60;6.07;;;15.80;99.90;;;;;;5111565;28;20080;-61
2022/05/17 01:06:48;;;;;;;18.80;6.72;;;15.80;99.90;;;;;;5093655;28;20120;-60
2022/05/17 01:09:14;;;;;;;18.63;6.93;;;15.80;99.90;;;;;;5093791;28;20051;-61
2022/05/17 01:11:41;;;;;;;13.95;6.13;;;15.80;99.90;;;;;;5093374;28;20388;-64
2022/05/17 01:17:00;;;;;;;18.23;6.75;;;15.70;99.90;;;;;;5079150;28;20511;-60
2022/05/17 01:19:26;;;;;;;20.30;6.82;;;15.70;99.90;;;;;;5111583;28;20055;-60
2022/05/17 01:21:52;;;;;;;19.92;7.18;;;15.70;99.90;;;;;;5111420;28;20048;-61
2022/05/17 01:24:18;;;;;;;22.38;6.97;;;15.70;99.90;;;;;;5093727;28;20043;-60
2022/05/17 01:26:51;;;;;;;23.83;7.60;;;15.70;99.90;;;;;;5111339;28;20415;-61
2022/05/17 01:29:17;;;;;;;18.48;7.40;;;15.70;99.90;;;;;;5111830;28;20051;-60
2022/05/17 01:31:43;;;;;;;18.30;7.50;;;15.60;99.90;;;;;;5111477;28;20093;-64
2022/05/17 01:34:10;;;;;;;19.60;7.30;;;15.60;99.90;;;;;;5093645;28;20131;-61
2022/05/17 01:36:40;;;;;;;20.52;7.80;;;15.60;99.90;;;;;;5111720;28;20039;-60
2022/05/17 01:39:07;;;;;;;17.52;7.53;;;15.60;99.90;;;;;;5111642;28;20093;-60
2022/05/17 01:41:33;;;;;;;19.02;7.40;;;15.60;99.90;;;;;;5111860;28;20043;-61
2022/05/17 01:43:59;;;;;;;20.65;9.13;;;15.50;99.90;;;;;;5076311;28;20047;-60
2022/05/17 01:46:25;;;;;;;17.90;8.07;;;15.50;99.90;;;;;;5111803;28;20040;-61
2022/05/17 01:48:51;;;;;;;21.35;8.27;;;15.40;99.90;;;;;;5092853;28;20046;-61
2022/05/17 01:51:19;;;;;;;19.52;7.65;;;15.50;99.90;;;;;;5111045;28;20109;-60
2022/05/17 01:53:44;;;;;;;20.52;7.53;;;15.40;99.90;;;;;;5111225;28;20063;-63
2022/05/17 01:56:11;;;;;;;20.77;8.27;;;15.40;99.90;;;;;;5110869;28;20047;-60
2022/05/17 01:58:37;;;;;;;18.48;7.75;;;15.40;99.90;;;;;;5111145;28;20047;-59
2022/05/17 02:01:05;;;;;;;19.52;8.30;;;15.40;99.90;;;;;;5112374;28;20490;-60
2022/05/17 02:03:31;;;;;;;19.98;8.43;;;15.40;99.90;;;;;;5115319;28;20044;-59
2022/05/17 02:05:57;;;;;;;14.45;7.32;;;15.30;99.90;;;;;;5096747;28;20051;-61
2022/05/17 02:08:23;;;;;;;17.98;8.13;;;15.40;99.90;;;;;;5115265;28;20043;-60
2022/05/17 02:10:48;;;;;;;15.25;7.85;;;15.30;99.90;;;;;;5096960;28;20044;-63
2022/05/17 02:13:17;;;;;;;18.88;7.95;;;15.30;99.90;;;;;;5097009;28;20043;-60
2022/05/17 02:15:43;;;;;;;15.15;7.70;;;15.30;99.90;;;;;;5115111;28;20083;-60
2022/05/17 02:18:09;;;;;;;19.00;7.72;;;15.20;99.90;;;;;;5114767;28;20091;-60
2022/05/17 02:20:35;;;;;;;20.58;8.55;;;15.20;99.90;;;;;;5114879;28;20130;-60
2022/05/17 02:23:01;;;;;;;19.08;8.05;;;15.20;99.90;;;;;;5114557;28;20058;-60
2022/05/17 02:25:27;;;;;;;19.52;8.02;;;15.20;99.90;;;;;;5080169;28;20089;-60
2022/05/17 02:27:53;;;;;;;20.90;8.60;;;15.20;99.90;;;;;;5114431;28;20039;-60
2022/05/17 02:30:19;;;;;;;23.10;8.43;;;15.10;99.90;;;;;;5114868;28;20103;-59
2022/05/17 02:32:45;;;;;;;18.83;8.00;;;15.10;99.90;;;;;;5096486;28;20448;-60
2022/05/17 02:35:12;;;;;;;19.65;9.20;;;15.10;99.90;;;;;;5114556;28;20102;-60
2022/05/17 02:37:39;;;;;;;17.48;8.00;;;15.00;99.90;;;;;;5096313;28;20055;-61
2022/05/17 02:40:05;;;;;;;22.95;8.68;;;15.00;99.90;;;;;;5114291;28;20058;-61
2022/05/17 02:42:31;;;;;;;19.38;8.60;;;15.00;99.90;;;;;;5096733;28;20126;-61
2022/05/17 02:44:57;;;;;;;17.17;8.20;;;14.90;99.90;;;;;;5095835;28;20713;-61
2022/05/17 02:47:23;;;;;;;19.50;8.35;;;15.00;99.90;;;;;;5096205;28;20634;-61
2022/05/17 02:49:48;;;;;;;22.33;8.27;;;14.90;99.90;;;;;;5114504;28;20096;-60
2022/05/17 02:52:14;;;;;;;19.48;7.63;;;14.90;99.90;;;;;;5113718;28;20139;-61
2022/05/17 02:54:40;;;;;;;18.30;8.57;;;14.90;99.90;;;;;;5114379;28;20047;-61
2022/05/17 02:57:07;;;;;;;18.38;8.07;;;14.90;99.90;;;;;;5114049;28;20434;-60
2022/05/17 02:59:33;;;;;;;20.92;8.60;;;14.90;99.90;;;;;;5114337;28;20148;-60
2022/05/17 03:01:59;;;;;;;16.88;8.70;;;14.90;99.90;;;;;;5095757;28;20130;-60
2022/05/17 03:04:26;;;;;;;17.58;7.43;;;14.80;99.90;;;;;;5114309;28;20046;-61
2022/05/17 03:06:53;;;;;;;19.92;8.52;;;14.80;99.90;;;;;;5114221;28;20047;-60
2022/05/17 03:09:19;;;;;;;19.73;8.00;;;14.80;99.90;;;;;;5113906;28;20062;-60
2022/05/17 03:11:45;;;;;;;19.45;8.30;;;14.80;99.90;;;;;;5095598;28;20480;-61
2022/05/17 03:14:13;;;;;;;21.80;8.13;;;14.80;99.90;;;;;;5113088;28;20050;-61
2022/05/17 03:16:40;;;;;;;16.58;7.45;;;14.80;99.90;;;;;;5095871;28;20047;-60
2022/05/17 03:19:06;;;;;;;19.17;7.70;;;14.70;99.90;;;;;;5113603;28;20124;-61
2022/05/17 03:21:32;;;;;;;18.77;7.60;;;14.70;99.90;;;;;;5114029;28;20051;-61
2022/05/17 03:23:58;;;;;;;18.10;7.60;;;14.70;99.90;;;;;;5113502;28;20103;-64
2022/05/17 03:26:24;;;;;;;17.38;7.75;;;14.70;99.90;;;;;;5113595;28;20048;-61
2022/05/17 03:28:50;;;;;;;21.02;7.60;;;14.70;99.90;;;;;;5095566;28;20046;-61
2022/05/17 03:31:15;;;;;;;16.17;7.05;;;14.70;99.90;;;;;;5095204;28;20040;-61
2022/05/17 03:33:41;;;;;;;16.42;7.03;;;14.70;99.90;;;;;;5095548;28;20047;-61
2022/05/17 03:36:08;;;;;;;14.90;7.18;;;14.70;99.90;;;;;;5094953;28;20044;-60
2022/05/17 03:38:34;;;;;;;16.23;6.95;;;14.70;99.90;;;;;;5113172;28;20600;-61
2022/05/17 03:41:00;;;;;;;17.52;7.80;;;14.60;99.90;;;;;;5094940;28;20054;-64
2022/05/17 03:43:27;;;;;;;25.67;7.47;;;14.60;99.90;;;;;;5113329;28;20484;-61
2022/05/17 03:45:54;;;;;;;21.25;7.35;;;14.60;99.90;;;;;;5078240;28;20404;-61
2022/05/17 03:48:21;;;;;;;17.35;7.90;;;14.60;99.90;;;;;;5113033;28;20036;-60
2022/05/17 03:50:47;;;;;;;16.80;6.93;;;14.60;99.90;;;;;;5095242;28;20047;-61
2022/05/17 03:53:13;;;;;;;16.45;7.07;;;14.50;99.90;;;;;;5091393;28;20489;-60
2022/05/17 03:55:39;;;;;;;21.58;7.32;;;14.50;99.90;;;;;;5092944;28;20083;-61
2022/05/17 03:58:05;;;;;;;17.63;7.10;;;14.50;99.90;;;;;;5092186;28;20098;-60
2022/05/17 04:00:31;;;;;;;12.63;6.65;;;14.50;99.90;;;;;;5092782;28;20145;-61
2022/05/17 04:02:57;;;;;;;21.73;7.03;;;14.50;99.90;;;;;;5092651;28;20300;-61
2022/05/17 04:05:23;;;;;;;15.70;6.80;;;14.60;99.90;;;;;;5091098;28;20072;-61
2022/05/17 04:07:48;;;;;;;21.10;6.82;;;14.60;99.90;;;;;;5091281;28;20062;-60
2022/05/17 04:10:16;;;;;;;15.82;6.85;;;14.60;99.90;;;;;;5090966;28;20087;-59
2022/05/17 04:12:42;;;;;;;16.77;6.57;;;14.60;99.90;;;;;;5091048;28;20054;-61
2022/05/17 04:15:11;;;;;;;16.92;6.28;;;14.60;99.90;;;;;;5092120;28;20044;-60
2022/05/17 04:17:37;;;;;;;15.43;6.90;;;14.60;99.90;;;;;;5091585;28;20052;-61
2022/05/17 04:20:03;;;;;;;16.75;6.47;;;14.60;99.90;;;;;;5092524;28;20077;-62
2022/05/17 04:22:29;;;;;;;12.40;6.40;;;14.70;99.90;;;;;;5092105;28;20048;-61
2022/05/17 04:24:56;;;;;;;15.38;6.07;;;14.70;99.90;;;;;;5090293;28;20124;-60
2022/05/17 04:27:22;;;;;;;19.15;6.75;;;14.70;99.90;;;;;;5091877;28;20211;-61
2022/05/17 04:29:48;;;;;;;17.15;6.80;;;14.80;99.90;;;;;;5092179;28;20040;-62
2022/05/17 04:32:14;;;;;;;13.73;5.97;;;14.90;99.90;;;;;;5073092;28;20481;-61
2022/05/17 04:34:40;;;;;;;15.82;5.80;;;15.00;99.90;;;;;;5090797;28;20093;-61
2022/05/17 04:37:06;;;;;;;15.23;5.95;;;15.30;99.90;;;;;;5090802;28;20040;-64
2022/05/17 04:39:32;;;;;;;14.82;6.43;;;15.60;99.90;;;;;;5092339;28;20051;-61
2022/05/17 04:41:58;;;;;;;14.23;5.78;;;16.00;99.90;;;;;;5091113;28;20056;-61
2022/05/17 04:44:25;;;;;;;15.35;5.47;;;16.50;99.90;;;;;;5091637;28;20043;-59
2022/05/17 04:46:51;;;;;;;15.90;5.25;;;17.20;99.90;;;;;;5091770;28;20040;-60
2022/05/17 04:49:17;;;;;;;15.38;5.05;;;17.90;99.90;;;;;;5091541;28;20055;-61
2022/05/17 04:51:43;;;;;;;15.65;5.07;;;18.50;99.90;;;;;;5096827;28;20090;-60
2022/05/17 04:54:09;;;;;;;13.45;4.97;;;19.20;99.90;;;;;;5093633;28;20223;-64
2022/05/17 04:56:34;;;;;;;12.20;4.43;;;19.70;99.90;;;;;;5094041;28;20105;-62
2022/05/17 04:59:01;;;;;;;15.32;4.60;;;20.10;99.90;;;;;;5112182;28;20044;-61
2022/05/17 05:01:27;;;;;;;11.55;4.03;;;20.50;99.90;;;;;;5093407;28;20040;-61
2022/05/17 05:03:53;;;;;;;14.60;5.05;;;20.90;99.90;;;;;;5111818;28;20077;-61
2022/05/17 05:06:19;;;;;;;17.60;4.82;;;21.30;99.90;;;;;;5111647;28;20079;-61
2022/05/17 05:08:45;;;;;;;13.15;4.32;;;21.50;99.90;;;;;;5112068;28;20052;-61
2022/05/17 05:11:11;;;;;;;11.27;4.18;;;22.00;99.90;;;;;;5111666;28;20040;-64
2022/05/17 05:13:37;;;;;;;14.70;4.57;;;22.00;99.90;;;;;;5112285;28;20051;-62
2022/05/17 05:16:07;;;;;;;12.63;4.28;;;22.10;99.90;;;;;;5093836;28;20079;-61
2022/05/17 05:18:33;;;;;;;15.15;4.28;;;22.00;99.90;;;;;;5093729;28;20087;-60
2022/05/17 05:21:04;;;;;;;14.10;5.10;;;22.30;99.90;;;;;;5076970;28;20451;-63
2022/05/17 05:23:30;;;;;;;11.85;4.00;;;22.20;99.90;;;;;;5111397;28;20142;-61
2022/05/17 05:26:00;;;;;;;11.75;3.78;;;21.90;99.90;;;;;;5093831;28;20054;-61
2022/05/17 05:28:25;;;;;;;11.95;3.42;;;21.70;99.90;;;;;;5111472;28;20048;-60
2022/05/17 05:30:52;;;;;;;12.27;4.60;;;21.40;99.90;;;;;;5111737;28;20059;-60
2022/05/17 05:33:18;;;;;;;12.88;4.30;;;21.30;99.90;;;;;;5093093;28;20047;-62
2022/05/17 05:35:44;;;;;;;13.50;4.10;;;21.30;99.90;;;;;;5094830;28;20039;-60
2022/05/17 05:38:10;;;;;;;12.57;4.85;;;21.10;99.90;;;;;;5097764;28;20039;-60
2022/05/17 05:40:35;;;;;;;14.38;4.10;;;20.80;99.90;;;;;;5097706;28;20597;-61
2022/05/17 05:43:01;;;;;;;10.27;4.00;;;20.50;99.90;;;;;;5096889;28;20112;-65
2022/05/17 05:45:27;;;;;;;13.85;4.30;;;20.50;99.90;;;;;;5115339;28;20047;-61
2022/05/17 05:47:53;;;;;;;15.18;5.30;;;20.70;99.90;;;;;;5115656;28;20047;-62
2022/05/17 05:50:19;;;;;;;11.68;4.28;;;21.20;99.90;;;;;;5115542;28;20092;-62
2022/05/17 05:52:47;;;;;;;11.07;4.43;;;21.80;99.90;;;;;;5115432;28;20091;-61
2022/05/17 05:55:19;;;;;;;13.93;4.03;;;22.20;99.90;;;;;;5097382;28;20529;-60
2022/05/17 05:57:44;;;;;;;15.73;4.30;;;22.40;99.90;;;;;;5115343;28;20493;-61
2022/05/17 06:00:11;;;;;;;11.70;4.13;;;22.80;99.90;;;;;;5115479;28;20048;-61
2022/05/17 06:02:38;;;;;;;10.93;3.90;;;23.20;99.90;;;;;;5097071;28;20116;-62
2022/05/17 06:05:05;;;;;;;13.30;4.07;;;23.70;99.90;;;;;;5096565;28;20086;-61
2022/05/17 06:07:31;;;;;;;13.52;3.85;;;23.80;99.90;;;;;;5114983;28;20400;-62
2022/05/17 06:09:57;;;;;;;10.82;4.15;;;24.00;99.90;;;;;;5115306;28;20040;-61
2022/05/17 06:12:22;;;;;;;13.13;4.28;;;23.90;99.90;;;;;;5114993;28;20040;-62
2022/05/17 06:14:48;;;;;;;10.55;4.15;;;23.50;99.90;;;;;;5114843;28;20047;-63
2022/05/17 06:17:14;;;;;;;13.55;4.43;;;23.40;99.90;;;;;;5115145;28;20046;-62
2022/05/17 06:19:39;;;;;;;14.20;4.18;;;23.10;99.90;;;;;;5096841;28;20088;-62
2022/05/17 06:22:05;;;;;;;12.50;3.97;;;23.40;99.90;;;;;;5115124;28;20051;-60
2022/05/17 06:24:31;;;;;;;11.07;4.35;;;23.50;99.90;;;;;;5096434;28;20051;-61
2022/05/17 06:26:57;;;;;;;11.20;3.72;;;23.90;99.90;;;;;;5096792;28;20049;-61
2022/05/17 06:29:23;;;;;;;12.30;3.70;;;24.40;99.90;;;;;;5114724;28;20048;-65
2022/05/17 06:31:48;;;;;;;10.45;3.85;;;25.00;99.90;;;;;;5096860;28;20071;-61
2022/05/17 06:34:14;;;;;;;10.63;4.30;;;25.50;98.60;;;;;;5114671;28;20083;-61
2022/05/17 06:36:40;;;;;;;15.88;6.22;;;25.70;98.40;;;;;;5096087;28;20043;-63
2022/05/17 06:39:08;;;;;;;9.32;3.58;;;26.00;98.10;;;;;;5096672;28;20043;-62
2022/05/17 06:41:35;;;;;;;12.13;3.88;;;26.30;97.60;;;;;;5114402;28;20044;-60
2022/05/17 06:44:01;;;;;;;12.77;3.65;;;26.60;96.90;;;;;;5096479;28;20083;-62
2022/05/17 06:46:26;;;;;;;11.65;4.88;;;26.50;97.00;;;;;;5114068;28;20465;-61
2022/05/17 06:48:52;;;;;;;10.52;3.22;;;26.40;96.40;;;;;;5113675;28;20040;-61
2022/05/17 06:51:18;;;;;;;9.73;3.78;;;26.40;96.60;;;;;;5114022;28;20094;-61
2022/05/17 06:53:43;;;;;;;12.18;4.20;;;26.50;96.10;;;;;;5095652;28;20468;-61
2022/05/17 06:56:09;;;;;;;16.85;3.70;;;26.20;96.40;;;;;;5114503;28;20036;-61
2022/05/17 06:58:35;;;;;;;10.20;3.83;;;26.40;96.10;;;;;;5113837;28;20085;-61
2022/05/17 07:01:01;;;;;;;8.73;3.42;;;26.40;96.20;;;;;;5114337;28;20055;-61
2022/05/17 07:03:27;;;;;;;10.57;3.75;;;26.60;96.10;;;;;;5095958;28;20044;-63
2022/05/17 07:05:52;;;;;;;11.30;4.07;;;26.90;95.10;;;;;;5114253;28;20044;-61
2022/05/17 07:08:18;;;;;;;9.98;3.55;;;27.00;95.30;;;;;;5114322;28;20048;-61
2022/05/17 07:13:29;;;;;;;10.73;3.67;;;27.50;94.70;;;;;;5113512;28;20055;-66
2022/05/17 07:15:56;;;;;;;9.75;3.70;;;27.50;94.80;;;;;;5113986;28;20047;-61
2022/05/17 07:18:24;;;;;;;9.82;3.90;;;27.60;94.50;;;;;;5113994;28;20054;-62
2022/05/17 07:20:50;;;;;;;10.43;3.60;;;27.90;94.00;;;;;;5113319;28;20053;-62
2022/05/17 07:23:17;;;;;;;9.43;3.50;;;28.20;93.50;;;;;;5095795;28;20043;-61
2022/05/17 07:25:45;;;;;;;9.40;3.60;;;28.30;93.40;;;;;;5113341;28;20152;-61
2022/05/17 07:28:14;;;;;;;10.70;3.45;;;28.70;92.90;;;;;;5095693;28;20083;-62
2022/05/17 07:30:40;;;;;;;10.63;3.83;;;28.70;92.90;;;;;;5095522;28;20153;-62
2022/05/17 07:33:06;;;;;;;11.25;3.72;;;;;;;;;;5113584;28;20393;-61
2022/05/17 07:35:32;;;;;;;11.23;3.78;;;29.30;92.40;;;;;;5113252;28;20046;-64
2022/05/17 07:37:58;;;;;;;8.52;3.38;;;29.60;91.50;;;;;;5113727;28;20414;-62
2022/05/17 07:40:24;;;;;;;9.48;3.67;;;29.70;91.50;;;;;;5095464;28;20092;-61
2022/05/17 07:42:52;;;;;;;10.63;3.78;;;30.10;91.20;;;;;;5094792;28;20047;-61
2022/05/17 07:45:18;;;;;;;12.32;3.97;;;30.20;90.50;;;;;;5078488;28;20063;-61
2022/05/17 07:47:44;;;;;;;10.80;3.92;;;30.50;90.60;;;;;;5094858;28;20044;-63
2022/05/17 07:50:10;;;;;;;9.85;3.40;;;30.40;90.20;;;;;;5113481;28;20477;-62
2022/05/17 07:52:36;;;;;;;9.55;3.65;;;30.30;90.20;;;;;;5109706;28;20138;-63
2022/05/17 07:55:02;;;;;;;11.60;3.72;;;30.40;90.40;;;;;;5111283;28;20043;-63
2022/05/17 07:57:28;;;;;;;9.00;3.28;;;30.20;88.90;;;;;;5108992;28;20055;-63
2022/05/17 07:59:54;;;;;;;8.55;3.30;;;30.50;88.60;;;;;;5110302;28;20046;-63
2022/05/17 08:02:21;;;;;;;9.85;3.40;;;30.60;88.30;;;;;;5110071;28;20071;-64
2022/05/17 08:04:48;;;;;;;10.70;3.03;;;30.60;87.70;;;;;;5110397;28;20511;-63
2022/05/17 08:07:13;;;;;;;9.52;3.30;;;30.70;87.20;;;;;;5106602;28;20040;-63
2022/05/17 08:09:40;;;;;;;9.98;3.60;;;30.80;87.60;;;;;;5111128;28;20537;-63
2022/05/17 08:12:10;;;;;;;10.02;3.95;;;30.80;86.50;;;;;;5110039;28;20446;-64
2022/05/17 08:14:38;;;;;;;10.70;3.30;;;30.80;86.20;;;;;;5092627;28;20051;-65
2022/05/17 08:17:07;;;;;;;10.85;3.58;;;30.80;86.50;;;;;;5111008;28;20043;-63
2022/05/17 08:19:37;;;;;;;12.70;4.10;;;30.90;85.70;;;;;;5110954;28;20591;-64
2022/05/17 08:22:05;;;;;;;10.13;3.63;;;31.20;85.50;;;;;;5110445;28;20040;-61
2022/05/17 08:27:31;;;;;;;10.73;3.30;;;31.60;85.20;;;;;;5110523;28;20066;-67
2022/05/17 08:27:36;;;;;;;9.15;3.67;;;;;;;;;;5110150;28;20054;-61
2022/05/17 08:30:09;;;;;;;10.57;3.53;;;31.70;84.20;;;;;;5111209;28;20082;-62
2022/05/17 08:35:19;;;;;;;10.38;3.42;;;31.90;84.20;;;;;;5110846;28;20396;-61
2022/05/17 08:37:45;;;;;;;10.40;3.70;;;31.80;84.00;;;;;;5091633;28;20047;-61
2022/05/17 08:40:22;;;;;;;8.57;3.72;;;32.10;82.60;;;;;;5111009;28;20051;-61
2022/05/17 08:43:35;;;;;;;9.88;3.65;;;32.40;82.20;;;;;;5109767;28;20473;-61
2022/05/17 08:46:14;;;;;;;9.63;3.78;;;32.70;81.00;;;;;;5053519;28;20059;-64
2022/05/17 08:48:52;;;;;;;10.57;3.75;;;32.70;81.00;;;;;;5109805;28;20073;-63
2022/05/17 08:51:33;;;;;;;10.38;3.67;;;32.10;81.60;;;;;;5110757;28;20395;-63
2022/05/17 08:53:59;;;;;;;11.43;3.92;;;31.40;82.30;;;;;;5109829;28;20043;-62
2022/05/17 08:56:28;;;;;;;10.70;3.70;;;31.50;82.10;;;;;;5110086;28;20435;-63
2022/05/17 08:58:56;;;;;;;9.20;3.55;;;31.90;81.10;;;;;;5109821;28;20146;-63
2022/05/17 09:01:33;;;;;;;9.52;4.35;;;32.10;80.80;;;;;;5110707;28;20043;-61
2022/05/17 09:04:23;;;;;;;10.43;4.07;;;32.10;80.50;;;;;;5110038;28;20211;-62
2022/05/17 09:07:12;;;;;;;10.10;3.95;;;31.80;81.10;;;;;;5109587;28;20124;-62
2022/05/17 09:09:57;;;;;;;10.73;3.78;;;31.40;79.60;;;;;;5109770;28;20043;-62
2022/05/17 09:12:35;;;;;;;12.38;3.95;;;30.70;80.20;;;;;;5092090;28;20047;-63
2022/05/17 09:15:03;;;;;;;9.30;3.47;;;30.40;81.70;;;;;;5109605;28;20120;-61
2022/05/17 09:17:30;;;;;;;7.45;3.25;;;30.50;81.10;;;;;;5110139;28;20055;-62
2022/05/17 09:19:56;;;;;;;10.13;3.65;;;30.70;80.10;;;;;;5109392;28;20070;-63
2022/05/17 09:22:23;;;;;;;10.18;3.25;;;30.80;81.00;;;;;;5110068;28;20047;-62
2022/05/17 09:24:57;;;;;;;11.55;4.03;;;30.80;81.20;;;;;;5091320;28;20051;-62
2022/05/17 09:27:27;;;;;;;12.40;4.07;;;31.20;80.80;;;;;;5110386;28;20382;-61
2022/05/17 09:30:11;;;;;;;9.35;3.60;;;31.60;78.90;;;;;;5091787;28;20515;-63
2022/05/17 09:32:44;;;;;;;9.15;3.05;;;31.90;77.50;;;;;;5110047;28;20039;-63
2022/05/17 09:35:18;;;;;;;8.85;3.08;;;31.90;77.50;;;;;;5110335;28;20496;-63
2022/05/17 09:37:49;;;;;;;9.77;3.38;;;31.90;77.40;;;;;;5074447;28;20061;-67
2022/05/17 09:40:25;;;;;;;10.15;3.53;;;31.80;78.60;;;;;;5109740;28;20452;-62
2022/05/17 09:42:57;;;;;;;11.90;3.00;;;31.50;78.50;;;;;;5091067;28;20059;-63
2022/05/17 09:45:37;;;;;;;9.85;2.88;;;31.00;77.90;;;;;;5093059;28;20153;-62
2022/05/17 09:48:06;;;;;;;7.85;2.55;;;30.20;77.80;;;;;;5110802;28;20045;-61
2022/05/17 09:53:49;;;;;;;9.45;3.17;;;29.50;79.00;;;;;;5110573;28;20098;-61
2022/05/17 09:56:17;;;;;;;7.70;2.67;;;29.30;79.10;;;;;;5110940;28;20043;-61
2022/05/17 09:58:44;;;;;;;8.05;3.22;;;29.10;80.00;;;;;;5110875;28;20461;-61
2022/05/17 10:01:19;;;;;;;9.30;3.42;;;28.90;80.60;;;;;;5092300;28;20044;-62
2022/05/17 10:04:05;;;;;;;7.93;2.95;;;28.90;80.50;;;;;;5092704;28;20480;-62
2022/05/17 10:06:43;;;;;;;10.80;3.50;;;28.80;80.20;;;;;;5093004;28;20058;-60
2022/05/17 10:09:12;;;;;;;12.75;2.90;;;28.90;79.80;;;;;;5110743;28;20089;-61
2022/05/17 10:12:20;;;;;;;10.05;3.30;;;29.00;80.10;;;;;;5111116;28;20071;-61
2022/05/17 10:14:52;;;;;;;7.97;2.90;;;29.10;78.90;;;;;;5105443;28;20150;-61
2022/05/17 10:17:26;;;;;;;7.72;2.65;;;28.50;79.60;;;;;;5110430;28;20123;-62
2022/05/17 10:20:04;;;;;;;11.13;3.20;;;28.30;79.70;;;;;;5110214;28;20047;-64
2022/05/17 10:22:37;;;;;;;9.60;2.85;;;28.10;79.00;;;;;;5094756;28;20500;-60
2022/05/17 10:25:19;;;;;;;10.40;2.95;;;28.10;78.50;;;;;;5114210;28;20087;-62
2022/05/17 10:27:54;;;;;;;8.68;2.70;;;28.20;77.60;;;;;;5114266;28;20059;-66
2022/05/17 10:30:33;;;;;;;9.00;2.95;;;28.00;78.10;;;;;;5096561;28;20054;-61
2022/05/17 10:33:06;;;;;;;7.13;2.05;;;27.50;79.30;;;;;;5095713;28;20362;-62
2022/05/17 10:35:33;;;;;;;8.05;2.83;;;27.30;79.80;;;;;;5114303;28;20492;-61
2022/05/17 10:38:24;;;;;;;7.57;2.75;;;27.10;80.90;;;;;;5113695;28;20051;-60
2022/05/17 10:40:51;;;;;;;8.73;2.63;;;27.10;80.60;;;;;;5079310;28;20047;-62
2022/05/17 10:43:28;;;;;;;7.63;2.60;;;27.10;80.30;;;;;;5114347;28;20036;-66
2022/05/17 10:46:08;;;;;;;8.95;3.20;;;27.10;80.20;;;;;;5113414;28;20047;-63
2022/05/17 10:49:06;;;;;;;9.27;2.63;;;27.20;80.30;;;;;;5114272;28;20119;-61
2022/05/17 10:51:47;;;;;;;8.93;2.95;;;27.20;81.60;;;;;;5113628;28;20074;-60
2022/05/17 10:54:46;;;;;;;9.18;2.80;;;27.20;80.20;;;;;;5095599;28;20555;-62
2022/05/17 10:57:42;;;;;;;6.47;2.53;;;27.20;80.70;;;;;;5113517;28;20412;-60
2022/05/17 11:00:22;;;;;;;9.18;2.60;;;27.20;80.30;;;;;;5113812;28;20055;-61
2022/05/17 11:03:07;;;;;;;6.85;2.38;;;27.10;79.10;;;;;;5113940;28;20511;-61
2022/05/17 11:05:34;;;;;;;6.97;2.30;;;26.90;79.70;;;;;;5114181;28;20044;-62
2022/05/17 11:08:39;;;;;;;8.43;2.50;;;27.10;78.70;;;;;;5113389;28;20058;-64
2022/05/17 11:11:28;;;;;;;9.10;2.95;;;27.30;79.10;;;;;;5113752;28;20118;-61
2022/05/17 11:14:05;;;;;;;8.73;2.90;;;27.00;79.30;;;;;;5095899;28;20044;-62
2022/05/17 11:16:42;;;;;;;9.13;2.60;;;27.00;79.80;;;;;;5113758;28;20073;-62
2022/05/17 11:19:21;;;;;;;9.45;2.72;;;27.10;79.90;;;;;;5113510;28;20401;-62
2022/05/17 11:21:54;;;;;;;9.25;2.42;;;27.00;79.30;;;;;;5113900;28;20040;-60
2022/05/17 11:24:33;;;;;;;6.95;2.88;;;27.10;78.80;;;;;;5113296;28;20044;-62
2022/05/17 11:27:29;;;;;;;7.35;2.60;;;27.00;78.90;;;;;;5113559;28;20431;-65
2022/05/17 11:30:13;;;;;;;8.02;2.95;;;26.80;78.80;;;;;;5113755;28;20408;-62
2022/05/17 11:32:42;;;;;;;;;;;26.60;80.10;;;;;;5096247;28;20052;-62
2022/05/17 11:35:26;;;;;;;8.32;2.80;;;26.40;80.10;;;;;;5112858;28;19934;-61
2022/05/17 11:37:54;;;;;;;8.65;3.08;;;26.40;81.00;;;;;;5113375;28;20385;-61
2022/05/17 11:40:49;;;;;;;9.60;2.80;;;26.70;80.00;;;;;;5113023;28;20043;-61
2022/05/17 11:43:42;;;;;;;9.95;2.92;;;26.90;79.40;;;;;;5113022;28;20092;-61
2022/05/17 11:46:30;;;;;;;8.87;2.50;;;27.10;80.20;;;;;;5113184;28;20086;-63
2022/05/17 11:49:17;;;;;;;8.73;2.22;;;27.00;78.60;;;;;;5112902;28;20416;-61
2022/05/17 11:51:57;;;;;;;6.90;2.42;;;27.00;79.20;;;;;;5111540;28;20142;-61
2022/05/17 11:54:40;;;;;;;10.55;2.80;;;27.20;78.40;;;;;;5112566;28;20488;-61
2022/05/17 11:57:09;;;;;;;8.82;2.72;;;27.20;78.20;;;;;;5077360;28;20132;-62
2022/05/17 12:00:07;;;;;;;8.75;2.80;;;27.10;77.90;;;;;;5095069;28;20120;-61
2022/05/17 12:02:46;;;;;;;9.15;2.65;;;27.10;78.50;;;;;;5113097;28;20115;-61
2022/05/17 12:05:33;;;;;;;8.15;2.70;;;26.80;78.70;;;;;;5112471;28;20050;-62
2022/05/17 12:08:28;;;;;;;7.00;2.15;;;26.70;79.20;;;;;;5112980;28;20090;-62
2022/05/17 12:11:12;;;;;;;6.78;2.35;;;26.80;74.20;;;;;;5112706;28;20100;-61
2022/05/17 12:13:44;;;;;;;;;;;26.90;72.30;;;;;;5113209;28;20190;-62
2022/05/17 12:16:16;;;;;;;8.23;2.33;;;27.10;73.50;;;;;;5112054;28;19920;-62
2022/05/17 12:18:47;;;;;;;5.50;1.83;;;27.10;72.90;;;;;;5095115;28;20083;-62
2022/05/17 12:21:41;;;;;;;15.18;2.63;;;26.90;72.80;;;;;;5112233;28;20464;-62
2022/05/17 12:24:49;;;;;;;5.60;2.22;;;26.60;73.90;;;;;;5082457;28;20105;-65
2022/05/17 12:27:23;;;;;;;6.22;2.08;;;26.50;74.50;;;;;;5111921;28;20052;-62
2022/05/17 12:33:05;;;;;;;6.22;1.92;;;26.60;74.20;;;;;;5109768;28;20051;-62
2022/05/17 12:35:31;;;;;;;5.97;2.15;;;26.80;74.20;;;;;;5075870;28;20055;-61
2022/05/17 12:37:57;;;;;;;8.40;2.00;;;26.90;73.60;;;;;;5112077;28;20536;-61
2022/05/17 12:43:22;;;;;;;8.07;2.20;;;27.00;75.10;;;;;;5111841;28;20070;-64
2022/05/17 12:45:49;;;;;;;7.72;1.90;;;27.00;74.50;;;;;;5111031;28;20050;-61
2022/05/17 12:48:33;;;;;;;6.43;2.17;;;27.10;74.90;;;;;;5093619;28;20077;-62
2022/05/17 12:51:00;;;;;;;;;;;27.00;74.20;;;;;;5094854;28;20044;-62
2022/05/17 12:53:36;;;;;;;9.88;2.70;;;26.80;74.40;;;;;;5092924;28;19923;-61
2022/05/17 12:56:12;;;;;;;6.00;2.30;;;26.70;75.40;;;;;;5111771;28;20390;-61
2022/05/17 12:58:52;;;;;;;6.55;2.03;;;26.50;75.80;;;;;;5076588;28;20062;-61
2022/05/17 13:01:28;;;;;;;8.50;2.20;;;26.60;75.10;;;;;;5111279;28;20087;-62
2022/05/17 13:03:57;;;;;;;7.55;2.30;;;26.60;75.70;;;;;;5111753;28;20051;-62
2022/05/17 13:06:36;;;;;;;10.63;2.50;;;26.50;76.20;;;;;;5093387;28;20047;-61
2022/05/17 13:09:03;;;;;;;6.72;2.13;;;26.40;76.70;;;;;;5093572;28;20379;-62
2022/05/17 13:11:29;;;;;;;5.65;1.95;;;26.50;76.60;;;;;;5111180;28;20105;-61
2022/05/17 13:14:00;;;;;;;9.52;2.30;;;26.60;75.00;;;;;;5076859;28;20524;-62
2022/05/17 13:16:31;;;;;;;5.57;1.70;;;26.70;75.10;;;;;;5110729;28;20051;-61
2022/05/17 13:19:01;;;;;;;6.47;2.15;;;26.90;73.60;;;;;;5111631;28;20115;-62